sensor_id;sensor_type;location;lat;lon;timestamp;temperature;humidity
20929;DHT22;21895;47.072;15.132;2023-02-01T00:01:56;-0.30;99.90
20929;DHT22;21895;47.072;15.132;2023-02-01T00:04:22;-0.40;99.50
20929;DHT22;21895;47.072;15.132;2023-02-01T00:06:49;-0.60;99.90
20929;DHT22;21895;47.072;15.132;2023-02-01T00:09:15;-0.50;99.90
20929;DHT22;21895;47.072;15.132;2023-02-01T00:11:42;-0.60;99.90
20929;DHT22;21895;47.072;15.132;2023-02-01T00:14:08;-0.50;99.90
20929;DHT22;21895;47.072;15.132;2023-02-01T00:16:35;-0.50;99.70
20929;DHT22;21895;47.072;15.132;2023-02-01T00:19:11;-0.60;99.90
20929;DHT22;21895;47.072;15.132;2023-02-01T00:21:39;-0.70;99.90
20929;DHT22;21895;47.072;15.132;2023-02-01T00:24:07;-0.60;99.90
20929;DHT22;21895;47.072;15.132;2023-02-01T00:26:38;-0.40;99.90
20929;DHT22;21895;47.072;15.132;2023-02-01T00:29:15;-0.40;99.90
20929;DHT22;21895;47.072;15.132;2023-02-01T00:31:44;-0.40;99.90
20929;DHT22;21895;47.072;15.132;2023-02-01T00:34:15;-0.40;99.90
20929;DHT22;21895;47.072;15.132;2023-02-01T00:36:43;-0.40;99.90
20929;DHT22;21895;47.072;15.132;2023-02-01T00:39:11;-0.40;99.90
20929;DHT22;21895;47.072;15.132;2023-02-01T00:41:38;-0.40;99.90
20929;DHT22;21895;47.072;15.132;2023-02-01T00:44:06;-0.50;99.90
20929;DHT22;21895;47.072;15.132;2023-02-01T00:46:32;-0.60;99.90
20929;DHT22;21895;47.072;15.132;2023-02-01T00:48:59;-0.70;99.90
20929;DHT22;21895;47.072;15.132;2023-02-01T00:51:29;-0.70;99.90
20929;DHT22;21895;47.072;15.132;2023-02-01T00:53:56;-0.80;99.90
20929;DHT22;21895;47.072;15.132;2023-02-01T00:56:23;-0.80;99.90
20929;DHT22;21895;47.072;15.132;2023-02-01T00:58:49;-0.80;99.90
20929;DHT22;21895;47.072;15.132;2023-02-01T01:01:26;-0.80;99.90
20929;DHT22;21895;47.072;15.132;2023-02-01T01:03:55;-0.80;99.90
20929;DHT22;21895;47.072;15.132;2023-02-01T01:06:26;-1.00;99.90
20929;DHT22;21895;47.072;15.132;2023-02-01T01:08:58;-0.80;99.90
20929;DHT22;21895;47.072;15.132;2023-02-01T01:11:28;-0.90;99.90
20929;DHT22;21895;47.072;15.132;2023-02-01T01:13:57;-0.80;99.90
20929;DHT22;21895;47.072;15.132;2023-02-01T01:16:26;-0.70;99.90
20929;DHT22;21895;47.072;15.132;2023-02-01T01:18:56;-0.80;99.90
20929;DHT22;21895;47.072;15.132;2023-02-01T01:21:27;-0.70;99.90
20929;DHT22;21895;47.072;15.132;2023-02-01T01:23:53;-0.70;99.90
20929;DHT22;21895;47.072;15.132;2023-02-01T01:26:23;-0.70;99.90
20929;DHT22;21895;47.072;15.132;2023-02-01T01:28:52;-0.70;99.90
20929;DHT22;21895;47.072;15.132;2023-02-01T01:31:21;-0.70;99.90
20929;DHT22;21895;47.072;15.132;2023-02-01T01:33:52;-0.70;99.90
20929;DHT22;21895;47.072;15.132;2023-02-01T01:36:21;-0.70;99.90
20929;DHT22;21895;47.072;15.132;2023-02-01T01:38:48;-0.80;99.90
20929;DHT22;21895;47.072;15.132;2023-02-01T01:41:17;-0.90;99.90
20929;DHT22;21895;47.072;15.132;2023-02-01T01:44:06;-0.80;99.90
20929;DHT22;21895;47.072;15.132;2023-02-01T01:47:22;-0.80;99.90
20929;DHT22;21895;47.072;15.132;2023-02-01T01:49:50;-0.80;99.90
20929;DHT22;21895;47.072;15.132;2023-02-01T01:52:17;-0.90;99.90
20929;DHT22;21895;47.072;15.132;2023-02-01T01:54:47;-0.90;99.90
20929;DHT22;21895;47.072;15.132;2023-02-01T01:57:28;-0.80;99.90
20929;DHT22;21895;47.072;15.132;2023-02-01T02:00:20;-0.80;99.90
20929;DHT22;21895;47.072;15.132;2023-02-01T02:02:55;-0.60;99.90
20929;DHT22;21895;47.072;15.132;2023-02-01T02:05:25;-0.70;99.90
20929;DHT22;21895;47.072;15.132;2023-02-01T02:07:57;-0.90;99.90
20929;DHT22;21895;47.072;15.132;2023-02-01T02:10:27;-1.10;99.90
20929;DHT22;21895;47.072;15.132;2023-02-01T02:13:14;-1.40;99.90
20929;DHT22;21895;47.072;15.132;2023-02-01T02:15:49;-1.40;99.90
20929;DHT22;21895;47.072;15.132;2023-02-01T02:24:06;-1.40;99.90
20929;DHT22;21895;47.072;15.132;2023-02-01T02:35:14;-1.20;99.90
20929;DHT22;21895;47.072;15.132;2023-02-01T02:38:20;-1.20;99.90
20929;DHT22;21895;47.072;15.132;2023-02-01T02:41:18;-1.20;99.90
20929;DHT22;21895;47.072;15.132;2023-02-01T02:44:23;-1.20;99.90
20929;DHT22;21895;47.072;15.132;2023-02-01T02:47:59;-1.20;99.90
20929;DHT22;21895;47.072;15.132;2023-02-01T02:51:13;-1.10;99.90
20929;DHT22;21895;47.072;15.132;2023-02-01T02:55:17;-1.00;99.90
20929;DHT22;21895;47.072;15.132;2023-02-01T02:57:44;-1.20;99.90
20929;DHT22;21895;47.072;15.132;2023-02-01T03:00:32;-1.30;99.90
20929;DHT22;21895;47.072;15.132;2023-02-01T03:03:18;-1.20;99.90
20929;DHT22;21895;47.072;15.132;2023-02-01T03:06:02;-1.30;99.90
20929;DHT22;21895;47.072;15.132;2023-02-01T03:08:30;-1.40;99.90
20929;DHT22;21895;47.072;15.132;2023-02-01T03:11:04;-1.50;99.90
20929;DHT22;21895;47.072;15.132;2023-02-01T03:13:53;-1.60;99.90
20929;DHT22;21895;47.072;15.132;2023-02-01T03:16:38;-1.60;99.90
20929;DHT22;21895;47.072;15.132;2023-02-01T03:19:36;-1.60;99.90
20929;DHT22;21895;47.072;15.132;2023-02-01T03:22:14;-1.60;99.90
20929;DHT22;21895;47.072;15.132;2023-02-01T03:24:50;-1.60;99.90
20929;DHT22;21895;47.072;15.132;2023-02-01T03:27:42;-1.60;99.90
20929;DHT22;21895;47.072;15.132;2023-02-01T03:30:29;-1.70;99.90
20929;DHT22;21895;47.072;15.132;2023-02-01T03:33:06;-1.60;99.90
20929;DHT22;21895;47.072;15.132;2023-02-01T03:41:43;-1.50;99.90
20929;DHT22;21895;47.072;15.132;2023-02-01T03:44:22;-1.60;99.90
20929;DHT22;21895;47.072;15.132;2023-02-01T03:47:14;-1.70;99.90
20929;DHT22;21895;47.072;15.132;2023-02-01T03:49:49;-1.70;99.90
20929;DHT22;21895;47.072;15.132;2023-02-01T03:52:26;-1.80;99.90
20929;DHT22;21895;47.072;15.132;2023-02-01T03:54:57;-1.60;99.90
20929;DHT22;21895;47.072;15.132;2023-02-01T03:57:33;-1.80;99.90
20929;DHT22;21895;47.072;15.132;2023-02-01T04:00:26;-1.80;99.90
20929;DHT22;21895;47.072;15.132;2023-02-01T04:02:53;-1.90;99.90
20929;DHT22;21895;47.072;15.132;2023-02-01T04:05:21;-1.80;99.90
20929;DHT22;21895;47.072;15.132;2023-02-01T04:07:47;-1.70;99.90
20929;DHT22;21895;47.072;15.132;2023-02-01T04:10:14;-1.70;99.90
20929;DHT22;21895;47.072;15.132;2023-02-01T04:12:45;-1.70;99.90
20929;DHT22;21895;47.072;15.132;2023-02-01T04:15:11;-1.80;99.90
20929;DHT22;21895;47.072;15.132;2023-02-01T04:17:38;-1.60;99.90
20929;DHT22;21895;47.072;15.132;2023-02-01T04:20:05;-1.60;99.90
20929;DHT22;21895;47.072;15.132;2023-02-01T04:22:32;-1.60;99.90
20929;DHT22;21895;47.072;15.132;2023-02-01T04:24:58;-1.50;99.90
20929;DHT22;21895;47.072;15.132;2023-02-01T04:27:25;-1.50;99.90
20929;DHT22;21895;47.072;15.132;2023-02-01T04:29:51;-1.60;99.90
20929;DHT22;21895;47.072;15.132;2023-02-01T04:32:18;-1.50;99.90
20929;DHT22;21895;47.072;15.132;2023-02-01T04:34:48;-1.50;99.90
20929;DHT22;21895;47.072;15.132;2023-02-01T04:37:14;-1.50;99.90
20929;DHT22;21895;47.072;15.132;2023-02-01T04:39:41;-1.40;99.90
20929;DHT22;21895;47.072;15.132;2023-02-01T04:42:07;-1.30;99.90
20929;DHT22;21895;47.072;15.132;2023-02-01T04:44:34;-1.30;99.90
20929;DHT22;21895;47.072;15.132;2023-02-01T04:47:02;-1.50;99.90
20929;DHT22;21895;47.072;15.132;2023-02-01T04:49:29;-1.60;99.90
20929;DHT22;21895;47.072;15.132;2023-02-01T04:51:55;-1.50;99.90
20929;DHT22;21895;47.072;15.132;2023-02-01T04:54:22;-1.50;99.90
20929;DHT22;21895;47.072;15.132;2023-02-01T04:56:48;-1.50;99.90
20929;DHT22;21895;47.072;15.132;2023-02-01T04:59:15;-1.50;99.90
20929;DHT22;21895;47.072;15.132;2023-02-01T05:01:41;-1.40;99.90
20929;DHT22;21895;47.072;15.132;2023-02-01T05:04:08;-1.40;99.90
20929;DHT22;21895;47.072;15.132;2023-02-01T05:06:35;-1.50;99.90
20929;DHT22;21895;47.072;15.132;2023-02-01T05:09:02;-1.40;99.90
20929;DHT22;21895;47.072;15.132;2023-02-01T05:11:28;-1.30;99.90
20929;DHT22;21895;47.072;15.132;2023-02-01T05:14:13;-1.40;99.90
20929;DHT22;21895;47.072;15.132;2023-02-01T05:16:40;-1.50;99.90
20929;DHT22;21895;47.072;15.132;2023-02-01T05:19:06;-1.50;99.90
20929;DHT22;21895;47.072;15.132;2023-02-01T05:21:32;-1.50;99.90
20929;DHT22;21895;47.072;15.132;2023-02-01T05:23:59;-1.40;99.90
20929;DHT22;21895;47.072;15.132;2023-02-01T05:26:46;-1.50;99.90
20929;DHT22;21895;47.072;15.132;2023-02-01T05:29:15;-1.40;99.90
20929;DHT22;21895;47.072;15.132;2023-02-01T05:31:44;-1.50;99.90
20929;DHT22;21895;47.072;15.132;2023-02-01T05:34:12;-1.40;99.90
20929;DHT22;21895;47.072;15.132;2023-02-01T05:36:39;-1.40;99.90
20929;DHT22;21895;47.072;15.132;2023-02-01T05:39:06;-1.30;99.90
20929;DHT22;21895;47.072;15.132;2023-02-01T05:41:32;-1.30;99.90
20929;DHT22;21895;47.072;15.132;2023-02-01T05:43:59;-1.40;99.90
20929;DHT22;21895;47.072;15.132;2023-02-01T05:46:25;-1.40;99.90
20929;DHT22;21895;47.072;15.132;2023-02-01T05:48:52;-1.30;99.90
20929;DHT22;21895;47.072;15.132;2023-02-01T05:51:18;-1.20;99.90
20929;DHT22;21895;47.072;15.132;2023-02-01T05:53:45;-1.20;99.90
20929;DHT22;21895;47.072;15.132;2023-02-01T05:56:11;-1.20;99.90
20929;DHT22;21895;47.072;15.132;2023-02-01T05:58:38;-1.20;99.90
20929;DHT22;21895;47.072;15.132;2023-02-01T06:01:04;-1.30;99.90
20929;DHT22;21895;47.072;15.132;2023-02-01T06:03:31;-1.10;99.90
20929;DHT22;21895;47.072;15.132;2023-02-01T06:05:57;-1.20;99.90
20929;DHT22;21895;47.072;15.132;2023-02-01T06:08:26;-1.30;99.90
20929;DHT22;21895;47.072;15.132;2023-02-01T06:11:04;-1.40;99.90
20929;DHT22;21895;47.072;15.132;2023-02-01T06:13:31;-1.60;99.90
20929;DHT22;21895;47.072;15.132;2023-02-01T06:16:01;-1.50;99.90
20929;DHT22;21895;47.072;15.132;2023-02-01T06:18:29;-1.30;99.90
20929;DHT22;21895;47.072;15.132;2023-02-01T06:20:57;-1.20;99.90
20929;DHT22;21895;47.072;15.132;2023-02-01T06:23:29;-1.20;99.90
20929;DHT22;21895;47.072;15.132;2023-02-01T06:26:01;-1.10;99.90
20929;DHT22;21895;47.072;15.132;2023-02-01T06:28:31;-1.00;99.90
20929;DHT22;21895;47.072;15.132;2023-02-01T06:31:05;-1.20;99.90
20929;DHT22;21895;47.072;15.132;2023-02-01T06:33:33;-1.20;99.90
20929;DHT22;21895;47.072;15.132;2023-02-01T06:36:03;-1.10;99.90
20929;DHT22;21895;47.072;15.132;2023-02-01T06:38:32;-1.00;99.90
20929;DHT22;21895;47.072;15.132;2023-02-01T06:41:01;-1.10;99.90
20929;DHT22;21895;47.072;15.132;2023-02-01T06:43:29;-1.10;99.90
20929;DHT22;21895;47.072;15.132;2023-02-01T06:46:04;-1.00;99.90
20929;DHT22;21895;47.072;15.132;2023-02-01T06:48:33;-1.00;99.90
20929;DHT22;21895;47.072;15.132;2023-02-01T06:50:59;-0.90;99.90
20929;DHT22;21895;47.072;15.132;2023-02-01T06:53:26;-0.90;99.90
20929;DHT22;21895;47.072;15.132;2023-02-01T06:56:00;-0.80;99.90
20929;DHT22;21895;47.072;15.132;2023-02-01T06:58:30;-0.70;99.90
20929;DHT22;21895;47.072;15.132;2023-02-01T07:01:03;-0.60;99.90
20929;DHT22;21895;47.072;15.132;2023-02-01T07:03:31;-0.50;99.90
20929;DHT22;21895;47.072;15.132;2023-02-01T07:05:58;-0.40;99.90
20929;DHT22;21895;47.072;15.132;2023-02-01T07:08:26;-0.30;99.90
20929;DHT22;21895;47.072;15.132;2023-02-01T07:10:54;-0.10;99.90
20929;DHT22;21895;47.072;15.132;2023-02-01T07:13:20;0.00;99.90
20929;DHT22;21895;47.072;15.132;2023-02-01T07:15:47;0.10;99.90
20929;DHT22;21895;47.072;15.132;2023-02-01T07:18:14;0.30;99.90
20929;DHT22;21895;47.072;15.132;2023-02-01T07:20:41;0.40;99.90
20929;DHT22;21895;47.072;15.132;2023-02-01T07:23:10;0.40;99.90
20929;DHT22;21895;47.072;15.132;2023-02-01T07:25:37;0.50;99.90
20929;DHT22;21895;47.072;15.132;2023-02-01T07:28:03;0.60;99.90
20929;DHT22;21895;47.072;15.132;2023-02-01T07:30:30;0.70;99.90
20929;DHT22;21895;47.072;15.132;2023-02-01T07:32:56;0.80;99.90
20929;DHT22;21895;47.072;15.132;2023-02-01T07:35:27;1.00;99.90
20929;DHT22;21895;47.072;15.132;2023-02-01T07:37:56;1.00;99.90
20929;DHT22;21895;47.072;15.132;2023-02-01T07:40:23;1.30;99.90
20929;DHT22;21895;47.072;15.132;2023-02-01T07:42:55;1.40;99.90
20929;DHT22;21895;47.072;15.132;2023-02-01T07:45:21;1.60;99.90
20929;DHT22;21895;47.072;15.132;2023-02-01T07:47:50;1.90;99.90
20929;DHT22;21895;47.072;15.132;2023-02-01T07:50:18;2.00;99.90
20929;DHT22;21895;47.072;15.132;2023-02-01T07:52:44;2.10;99.90
20929;DHT22;21895;47.072;15.132;2023-02-01T07:55:11;2.20;99.90
20929;DHT22;21895;47.072;15.132;2023-02-01T07:57:37;2.40;99.90
20929;DHT22;21895;47.072;15.132;2023-02-01T08:00:04;2.60;99.90
20929;DHT22;21895;47.072;15.132;2023-02-01T08:02:50;2.70;99.90
20929;DHT22;21895;47.072;15.132;2023-02-01T08:05:17;2.90;99.90
20929;DHT22;21895;47.072;15.132;2023-02-01T08:07:43;3.10;99.90
20929;DHT22;21895;47.072;15.132;2023-02-01T08:10:10;3.30;99.90
20929;DHT22;21895;47.072;15.132;2023-02-01T08:12:37;3.40;99.90
20929;DHT22;21895;47.072;15.132;2023-02-01T08:15:04;3.40;99.90
20929;DHT22;21895;47.072;15.132;2023-02-01T08:17:31;3.60;99.90
20929;DHT22;21895;47.072;15.132;2023-02-01T08:19:58;3.80;99.90
20929;DHT22;21895;47.072;15.132;2023-02-01T08:22:24;4.10;99.90
20929;DHT22;21895;47.072;15.132;2023-02-01T08:24:51;4.30;99.90
20929;DHT22;21895;47.072;15.132;2023-02-01T08:27:24;4.50;99.90
20929;DHT22;21895;47.072;15.132;2023-02-01T08:29:50;4.60;99.90
20929;DHT22;21895;47.072;15.132;2023-02-01T08:32:17;4.80;99.60
20929;DHT22;21895;47.072;15.132;2023-02-01T08:34:43;5.00;99.60
20929;DHT22;21895;47.072;15.132;2023-02-01T08:37:10;5.20;99.20
20929;DHT22;21895;47.072;15.132;2023-02-01T08:39:36;5.50;98.50
20929;DHT22;21895;47.072;15.132;2023-02-01T08:42:03;5.60;98.30
20929;DHT22;21895;47.072;15.132;2023-02-01T08:44:51;5.70;97.80
20929;DHT22;21895;47.072;15.132;2023-02-01T08:47:17;5.90;97.50
20929;DHT22;21895;47.072;15.132;2023-02-01T08:49:44;5.80;97.90
20929;DHT22;21895;47.072;15.132;2023-02-01T08:52:10;5.90;98.00
20929;DHT22;21895;47.072;15.132;2023-02-01T08:54:41;6.00;97.30
20929;DHT22;21895;47.072;15.132;2023-02-01T08:57:08;6.10;97.40
20929;DHT22;21895;47.072;15.132;2023-02-01T08:59:37;6.20;97.10
20929;DHT22;21895;47.072;15.132;2023-02-01T09:02:04;6.20;96.90
20929;DHT22;21895;47.072;15.132;2023-02-01T09:04:31;6.30;96.50
20929;DHT22;21895;47.072;15.132;2023-02-01T09:06:58;6.40;96.30
20929;DHT22;21895;47.072;15.132;2023-02-01T09:09:27;6.50;96.00
20929;DHT22;21895;47.072;15.132;2023-02-01T09:11:54;6.60;96.00
20929;DHT22;21895;47.072;15.132;2023-02-01T09:14:21;6.70;96.50
20929;DHT22;21895;47.072;15.132;2023-02-01T09:16:47;6.70;96.90
20929;DHT22;21895;47.072;15.132;2023-02-01T09:19:14;6.80;97.20
20929;DHT22;21895;47.072;15.132;2023-02-01T09:21:52;7.10;96.50
20929;DHT22;21895;47.072;15.132;2023-02-01T09:24:19;7.30;95.70
20929;DHT22;21895;47.072;15.132;2023-02-01T09:26:45;7.10;95.70
20929;DHT22;21895;47.072;15.132;2023-02-01T09:29:12;7.00;95.60
20929;DHT22;21895;47.072;15.132;2023-02-01T09:31:39;7.10;95.70
20929;DHT22;21895;47.072;15.132;2023-02-01T09:34:12;7.30;96.10
20929;DHT22;21895;47.072;15.132;2023-02-01T09:36:38;7.30;95.50
20929;DHT22;21895;47.072;15.132;2023-02-01T09:39:05;7.20;94.60
20929;DHT22;21895;47.072;15.132;2023-02-01T09:50:03;7.50;93.70
20929;DHT22;21895;47.072;15.132;2023-02-01T09:53:33;7.70;93.00
20929;DHT22;21895;47.072;15.132;2023-02-01T09:56:14;7.70;92.50
20929;DHT22;21895;47.072;15.132;2023-02-01T09:59:04;8.00;93.10
20929;DHT22;21895;47.072;15.132;2023-02-01T10:01:45;8.20;91.50
20929;DHT22;21895;47.072;15.132;2023-02-01T10:04:13;8.20;91.40
20929;DHT22;21895;47.072;15.132;2023-02-01T10:07:51;8.20;91.50
20929;DHT22;21895;47.072;15.132;2023-02-01T10:10:35;8.20;91.10
20929;DHT22;21895;47.072;15.132;2023-02-01T10:13:28;8.20;90.90
20929;DHT22;21895;47.072;15.132;2023-02-01T10:16:52;8.40;90.50
20929;DHT22;21895;47.072;15.132;2023-02-01T10:21:15;9.00;85.40
20929;DHT22;21895;47.072;15.132;2023-02-01T10:29:16;10.20;77.20
20929;DHT22;21895;47.072;15.132;2023-02-01T10:31:48;10.30;76.90
20929;DHT22;21895;47.072;15.132;2023-02-01T10:34:21;10.50;76.30
20929;DHT22;21895;47.072;15.132;2023-02-01T10:37:04;10.50;73.80
20929;DHT22;21895;47.072;15.132;2023-02-01T10:39:49;10.40;74.60
20929;DHT22;21895;47.072;15.132;2023-02-01T10:42:23;10.40;74.50
20929;DHT22;21895;47.072;15.132;2023-02-01T10:44:54;10.30;73.60
20929;DHT22;21895;47.072;15.132;2023-02-01T10:47:23;10.10;73.70
20929;DHT22;21895;47.072;15.132;2023-02-01T10:53:05;10.30;74.30
20929;DHT22;21895;47.072;15.132;2023-02-01T10:55:47;10.40;73.40
20929;DHT22;21895;47.072;15.132;2023-02-01T10:58:32;10.40;74.40
20929;DHT22;21895;47.072;15.132;2023-02-01T11:01:04;10.30;73.40
20929;DHT22;21895;47.072;15.132;2023-02-01T11:03:39;10.20;74.90
20929;DHT22;21895;47.072;15.132;2023-02-01T11:06:30;10.30;74.20
20929;DHT22;21895;47.072;15.132;2023-02-01T11:09:23;10.40;73.10
20929;DHT22;21895;47.072;15.132;2023-02-01T11:12:00;10.50;72.80
20929;DHT22;21895;47.072;15.132;2023-02-01T11:14:38;10.50;72.90
20929;DHT22;21895;47.072;15.132;2023-02-01T11:17:25;10.40;71.20
20929;DHT22;21895;47.072;15.132;2023-02-01T11:20:40;10.50;72.30
20929;DHT22;21895;47.072;15.132;2023-02-01T11:23:18;10.50;71.10
20929;DHT22;21895;47.072;15.132;2023-02-01T11:26:24;10.50;71.30
20929;DHT22;21895;47.072;15.132;2023-02-01T11:29:40;10.60;70.80
20929;DHT22;21895;47.072;15.132;2023-02-01T11:32:11;10.60;70.00
20929;DHT22;21895;47.072;15.132;2023-02-01T11:34:49;10.70;68.90
20929;DHT22;21895;47.072;15.132;2023-02-01T11:37:35;10.80;68.00
20929;DHT22;21895;47.072;15.132;2023-02-01T11:40:27;10.80;67.70
20929;DHT22;21895;47.072;15.132;2023-02-01T11:42:58;10.80;68.20
20929;DHT22;21895;47.072;15.132;2023-02-01T11:45:28;10.80;68.00
20929;DHT22;21895;47.072;15.132;2023-02-01T11:47:58;10.90;66.60
20929;DHT22;21895;47.072;15.132;2023-02-01T11:50:44;10.90;66.40
20929;DHT22;21895;47.072;15.132;2023-02-01T11:54:02;10.90;66.70
20929;DHT22;21895;47.072;15.132;2023-02-01T11:57:11;11.10;67.00
20929;DHT22;21895;47.072;15.132;2023-02-01T12:03:01;11.00;65.80
20929;DHT22;21895;47.072;15.132;2023-02-01T12:08:21;10.80;64.20
20929;DHT22;21895;47.072;15.132;2023-02-01T12:12:14;10.90;64.30
20929;DHT22;21895;47.072;15.132;2023-02-01T12:15:27;10.80;64.00
20929;DHT22;21895;47.072;15.132;2023-02-01T12:23:13;10.90;62.60
20929;DHT22;21895;47.072;15.132;2023-02-01T12:27:53;10.90;64.70
20929;DHT22;21895;47.072;15.132;2023-02-01T12:31:12;11.00;61.90
20929;DHT22;21895;47.072;15.132;2023-02-01T12:34:27;10.80;61.80
20929;DHT22;21895;47.072;15.132;2023-02-01T12:37:52;10.80;62.20
20929;DHT22;21895;47.072;15.132;2023-02-01T12:43:43;10.90;62.50
20929;DHT22;21895;47.072;15.132;2023-02-01T12:46:23;10.90;61.80
20929;DHT22;21895;47.072;15.132;2023-02-01T12:51:58;10.90;62.20
20929;DHT22;21895;47.072;15.132;2023-02-01T12:54:58;10.80;61.90
20929;DHT22;21895;47.072;15.132;2023-02-01T12:57:33;10.90;63.10
20929;DHT22;21895;47.072;15.132;2023-02-01T13:05:58;11.30;63.10
20929;DHT22;21895;47.072;15.132;2023-02-01T13:15:21;11.20;62.80
20929;DHT22;21895;47.072;15.132;2023-02-01T13:17:53;11.20;63.70
20929;DHT22;21895;47.072;15.132;2023-02-01T13:21:07;11.20;63.30
20929;DHT22;21895;47.072;15.132;2023-02-01T13:23:40;11.20;62.90
20929;DHT22;21895;47.072;15.132;2023-02-01T13:26:12;11.20;63.70
20929;DHT22;21895;47.072;15.132;2023-02-01T13:28:58;11.10;64.90
20929;DHT22;21895;47.072;15.132;2023-02-01T13:40:40;10.90;62.70
20929;DHT22;21895;47.072;15.132;2023-02-01T13:43:19;10.70;66.00
20929;DHT22;21895;47.072;15.132;2023-02-01T13:45:52;10.60;66.20
20929;DHT22;21895;47.072;15.132;2023-02-01T13:48:47;10.50;66.50
20929;DHT22;21895;47.072;15.132;2023-02-01T13:51:34;10.40;66.60
20929;DHT22;21895;47.072;15.132;2023-02-01T13:54:04;10.40;65.60
20929;DHT22;21895;47.072;15.132;2023-02-01T13:56:40;10.30;67.00
20929;DHT22;21895;47.072;15.132;2023-02-01T14:07:21;10.20;66.80
20929;DHT22;21895;47.072;15.132;2023-02-01T14:09:48;10.00;68.50
20929;DHT22;21895;47.072;15.132;2023-02-01T14:13:45;10.00;68.30
20929;DHT22;21895;47.072;15.132;2023-02-01T14:16:17;10.00;68.80
20929;DHT22;21895;47.072;15.132;2023-02-01T14:18:54;10.00;69.10
20929;DHT22;21895;47.072;15.132;2023-02-01T14:21:30;10.10;69.10
20929;DHT22;21895;47.072;15.132;2023-02-01T14:24:44;10.10;68.50
20929;DHT22;21895;47.072;15.132;2023-02-01T14:27:21;10.20;69.00
20929;DHT22;21895;47.072;15.132;2023-02-01T14:29:53;10.10;69.00
20929;DHT22;21895;47.072;15.132;2023-02-01T14:32:39;10.00;69.60
20929;DHT22;21895;47.072;15.132;2023-02-01T14:35:19;9.90;67.80
20929;DHT22;21895;47.072;15.132;2023-02-01T14:37:58;10.00;68.80
20929;DHT22;21895;47.072;15.132;2023-02-01T14:40:29;10.10;69.20
20929;DHT22;21895;47.072;15.132;2023-02-01T14:42:56;10.00;68.10
20929;DHT22;21895;47.072;15.132;2023-02-01T14:45:48;9.90;68.90
20929;DHT22;21895;47.072;15.132;2023-02-01T14:48:43;9.80;68.70
20929;DHT22;21895;47.072;15.132;2023-02-01T14:51:14;9.70;68.80
20929;DHT22;21895;47.072;15.132;2023-02-01T14:53:43;9.70;70.10
20929;DHT22;21895;47.072;15.132;2023-02-01T14:56:16;9.70;68.70
20929;DHT22;21895;47.072;15.132;2023-02-01T14:59:07;9.80;69.10
20929;DHT22;21895;47.072;15.132;2023-02-01T15:01:39;9.60;69.90
20929;DHT22;21895;47.072;15.132;2023-02-01T15:04:18;9.50;69.70
20929;DHT22;21895;47.072;15.132;2023-02-01T15:06:58;9.60;70.00
20929;DHT22;21895;47.072;15.132;2023-02-01T15:09:46;9.60;69.90
20929;DHT22;21895;47.072;15.132;2023-02-01T15:12:32;9.40;70.00
20929;DHT22;21895;47.072;15.132;2023-02-01T15:15:17;9.30;69.40
20929;DHT22;21895;47.072;15.132;2023-02-01T15:17:51;9.10;70.80
20929;DHT22;21895;47.072;15.132;2023-02-01T15:20:24;9.00;71.10
20929;DHT22;21895;47.072;15.132;2023-02-01T15:22:57;8.90;71.20
20929;DHT22;21895;47.072;15.132;2023-02-01T15:25:31;8.90;71.80
20929;DHT22;21895;47.072;15.132;2023-02-01T15:28:03;8.90;71.50
20929;DHT22;21895;47.072;15.132;2023-02-01T15:30:34;8.90;71.90
20929;DHT22;21895;47.072;15.132;2023-02-01T15:33:17;8.90;71.90
20929;DHT22;21895;47.072;15.132;2023-02-01T15:35:47;8.80;71.50
20929;DHT22;21895;47.072;15.132;2023-02-01T15:38:47;8.70;71.50
20929;DHT22;21895;47.072;15.132;2023-02-01T15:41:16;8.60;71.60
20929;DHT22;21895;47.072;15.132;2023-02-01T15:45:18;8.60;72.30
20929;DHT22;21895;47.072;15.132;2023-02-01T15:47:50;8.60;72.30
20929;DHT22;21895;47.072;15.132;2023-02-01T15:50:21;8.60;72.50
20929;DHT22;21895;47.072;15.132;2023-02-01T15:52:53;8.50;73.00
20929;DHT22;21895;47.072;15.132;2023-02-01T15:55:39;8.50;72.60
20929;DHT22;21895;47.072;15.132;2023-02-01T15:58:22;8.50;73.20
20929;DHT22;21895;47.072;15.132;2023-02-01T16:01:04;8.40;73.90
20929;DHT22;21895;47.072;15.132;2023-02-01T16:03:39;8.40;73.00
20929;DHT22;21895;47.072;15.132;2023-02-01T16:06:30;8.30;72.90
20929;DHT22;21895;47.072;15.132;2023-02-01T16:09:14;8.30;73.90
20929;DHT22;21895;47.072;15.132;2023-02-01T16:12:17;8.20;72.80
20929;DHT22;21895;47.072;15.132;2023-02-01T16:14:50;8.20;72.70
20929;DHT22;21895;47.072;15.132;2023-02-01T16:17:16;8.10;73.30
20929;DHT22;21895;47.072;15.132;2023-02-01T16:19:43;8.10;73.50
20929;DHT22;21895;47.072;15.132;2023-02-01T16:22:09;8.10;74.10
20929;DHT22;21895;47.072;15.132;2023-02-01T16:24:35;8.10;74.10
20929;DHT22;21895;47.072;15.132;2023-02-01T16:27:02;8.10;73.70
20929;DHT22;21895;47.072;15.132;2023-02-01T16:29:30;8.10;74.20
20929;DHT22;21895;47.072;15.132;2023-02-01T16:31:57;8.00;75.20
20929;DHT22;21895;47.072;15.132;2023-02-01T16:34:24;8.00;74.10
20929;DHT22;21895;47.072;15.132;2023-02-01T16:36:51;8.10;74.10
20929;DHT22;21895;47.072;15.132;2023-02-01T16:39:21;8.00;73.60
20929;DHT22;21895;47.072;15.132;2023-02-01T16:41:48;8.00;74.40
20929;DHT22;21895;47.072;15.132;2023-02-01T16:44:15;7.90;74.20
20929;DHT22;21895;47.072;15.132;2023-02-01T16:46:44;8.00;73.50
20929;DHT22;21895;47.072;15.132;2023-02-01T16:49:18;8.00;73.80
20929;DHT22;21895;47.072;15.132;2023-02-01T16:51:51;8.00;74.00
20929;DHT22;21895;47.072;15.132;2023-02-01T16:54:21;7.90;73.80
20929;DHT22;21895;47.072;15.132;2023-02-01T16:56:48;8.00;74.70
20929;DHT22;21895;47.072;15.132;2023-02-01T16:59:14;7.80;75.20
20929;DHT22;21895;47.072;15.132;2023-02-01T17:01:41;7.80;74.80
20929;DHT22;21895;47.072;15.132;2023-02-01T17:04:09;7.80;74.90
20929;DHT22;21895;47.072;15.132;2023-02-01T17:06:37;7.80;75.30
20929;DHT22;21895;47.072;15.132;2023-02-01T17:09:05;7.80;75.00
20929;DHT22;21895;47.072;15.132;2023-02-01T17:11:32;7.80;75.30
20929;DHT22;21895;47.072;15.132;2023-02-01T17:14:16;7.60;75.70
20929;DHT22;21895;47.072;15.132;2023-02-01T17:16:49;7.60;76.00
20929;DHT22;21895;47.072;15.132;2023-02-01T17:19:19;7.60;76.30
20929;DHT22;21895;47.072;15.132;2023-02-01T17:21:50;7.60;76.30
20929;DHT22;21895;47.072;15.132;2023-02-01T17:24:22;7.50;76.70
20929;DHT22;21895;47.072;15.132;2023-02-01T17:27:01;7.50;77.40
20929;DHT22;21895;47.072;15.132;2023-02-01T17:29:29;7.40;77.50
20929;DHT22;21895;47.072;15.132;2023-02-01T17:31:56;7.40;78.30
20929;DHT22;21895;47.072;15.132;2023-02-01T17:34:25;7.30;78.20
20929;DHT22;21895;47.072;15.132;2023-02-01T17:36:52;7.30;78.50
20929;DHT22;21895;47.072;15.132;2023-02-01T17:39:19;7.30;78.60
20929;DHT22;21895;47.072;15.132;2023-02-01T17:42:05;7.30;79.40
20929;DHT22;21895;47.072;15.132;2023-02-01T17:44:36;7.20;79.70